sensor_id;sensor_type;location;lat;lon;timestamp;temperature;humidity
42885;DHT22;28534;48.100;11.584;2023-03-14T00:00:33;21.30;56.00
42885;DHT22;28534;48.100;11.584;2023-03-14T00:05:35;21.30;55.40
42885;DHT22;28534;48.100;11.584;2023-03-14T00:10:37;21.30;55.40
42885;DHT22;28534;48.100;11.584;2023-03-14T00:15:40;21.30;55.50
42885;DHT22;28534;48.100;11.584;2023-03-14T00:20:42;21.30;55.50
42885;DHT22;28534;48.100;11.584;2023-03-14T00:25:44;21.30;55.50
42885;DHT22;28534;48.100;11.584;2023-03-14T00:30:47;21.30;55.50
42885;DHT22;28534;48.100;11.584;2023-03-14T00:35:53;21.30;55.60
42885;DHT22;28534;48.100;11.584;2023-03-14T00:40:55;21.30;55.60
42885;DHT22;28534;48.100;11.584;2023-03-14T00:45:58;21.30;55.60
42885;DHT22;28534;48.100;11.584;2023-03-14T00:51:00;21.30;55.70
42885;DHT22;28534;48.100;11.584;2023-03-14T00:56:02;21.30;55.70
42885;DHT22;28534;48.100;11.584;2023-03-14T01:01:10;21.30;55.70
42885;DHT22;28534;48.100;11.584;2023-03-14T01:06:15;21.20;55.80
42885;DHT22;28534;48.100;11.584;2023-03-14T01:11:19;21.20;55.70
42885;DHT22;28534;48.100;11.584;2023-03-14T01:16:24;21.20;55.80
42885;DHT22;28534;48.100;11.584;2023-03-14T01:21:28;21.30;55.90
42885;DHT22;28534;48.100;11.584;2023-03-14T01:26:33;21.30;55.90
42885;DHT22;28534;48.100;11.584;2023-03-14T01:31:36;21.30;55.90
42885;DHT22;28534;48.100;11.584;2023-03-14T01:36:38;21.20;56.50
42885;DHT22;28534;48.100;11.584;2023-03-14T01:41:40;21.20;55.90
42885;DHT22;28534;48.100;11.584;2023-03-14T01:46:44;21.20;55.90
42885;DHT22;28534;48.100;11.584;2023-03-14T01:51:51;21.20;56.00
42885;DHT22;28534;48.100;11.584;2023-03-14T01:56:57;21.20;56.00
42885;DHT22;28534;48.100;11.584;2023-03-14T02:02:02;21.20;56.10
42885;DHT22;28534;48.100;11.584;2023-03-14T02:07:10;21.20;56.10
42885;DHT22;28534;48.100;11.584;2023-03-14T02:12:15;21.20;56.10
42885;DHT22;28534;48.100;11.584;2023-03-14T02:17:19;21.20;56.10
42885;DHT22;28534;48.100;11.584;2023-03-14T02:22:22;21.20;56.20
42885;DHT22;28534;48.100;11.584;2023-03-14T02:27:25;21.20;56.20
42885;DHT22;28534;48.100;11.584;2023-03-14T02:32:29;21.20;56.20
42885;DHT22;28534;48.100;11.584;2023-03-14T02:37:36;21.20;56.20
42885;DHT22;28534;48.100;11.584;2023-03-14T02:42:40;21.20;56.20
42885;DHT22;28534;48.100;11.584;2023-03-14T02:47:44;21.10;56.20
42885;DHT22;28534;48.100;11.584;2023-03-14T02:52:47;21.10;56.30
42885;DHT22;28534;48.100;11.584;2023-03-14T02:57:50;21.10;56.30
42885;DHT22;28534;48.100;11.584;2023-03-14T03:02:52;21.10;56.30
42885;DHT22;28534;48.100;11.584;2023-03-14T03:07:54;21.10;56.30
42885;DHT22;28534;48.100;11.584;2023-03-14T03:12:58;21.10;56.40
42885;DHT22;28534;48.100;11.584;2023-03-14T03:18:00;21.10;56.40
42885;DHT22;28534;48.100;11.584;2023-03-14T03:23:02;21.10;56.50
42885;DHT22;28534;48.100;11.584;2023-03-14T03:28:05;21.10;56.40
42885;DHT22;28534;48.100;11.584;2023-03-14T03:33:08;21.10;56.50
42885;DHT22;28534;48.100;11.584;2023-03-14T03:38:10;21.10;56.50
42885;DHT22;28534;48.100;11.584;2023-03-14T03:43:13;21.10;56.40
42885;DHT22;28534;48.100;11.584;2023-03-14T03:48:15;21.20;56.40
42885;DHT22;28534;48.100;11.584;2023-03-14T03:53:17;21.20;56.30
42885;DHT22;28534;48.100;11.584;2023-03-14T03:58:20;21.30;56.20
42885;DHT22;28534;48.100;11.584;2023-03-14T04:03:21;21.30;56.10
42885;DHT22;28534;48.100;11.584;2023-03-14T04:08:23;21.40;56.00
42885;DHT22;28534;48.100;11.584;2023-03-14T04:13:27;21.40;55.90
42885;DHT22;28534;48.100;11.584;2023-03-14T04:18:29;21.40;55.90
42885;DHT22;28534;48.100;11.584;2023-03-14T04:23:31;21.50;56.40
42885;DHT22;28534;48.100;11.584;2023-03-14T04:28:35;21.60;55.60
42885;DHT22;28534;48.100;11.584;2023-03-14T04:33:37;21.70;55.40
42885;DHT22;28534;48.100;11.584;2023-03-14T04:38:39;21.70;55.40
42885;DHT22;28534;48.100;11.584;2023-03-14T04:43:42;21.80;55.20
42885;DHT22;28534;48.100;11.584;2023-03-14T04:48:44;21.90;55.00
42885;DHT22;28534;48.100;11.584;2023-03-14T04:53:46;22.00;54.80
42885;DHT22;28534;48.100;11.584;2023-03-14T04:58:49;22.10;54.80
42885;DHT22;28534;48.100;11.584;2023-03-14T05:03:50;22.10;54.80
42885;DHT22;28534;48.100;11.584;2023-03-14T05:08:52;22.10;54.80
42885;DHT22;28534;48.100;11.584;2023-03-14T05:13:55;22.00;55.60
42885;DHT22;28534;48.100;11.584;2023-03-14T05:18:57;22.10;54.90
42885;DHT22;28534;48.100;11.584;2023-03-14T05:23:59;22.20;54.80
42885;DHT22;28534;48.100;11.584;2023-03-14T05:29:02;22.20;54.70
42885;DHT22;28534;48.100;11.584;2023-03-14T05:34:04;22.30;54.60
42885;DHT22;28534;48.100;11.584;2023-03-14T05:39:05;22.20;54.70
42885;DHT22;28534;48.100;11.584;2023-03-14T05:44:08;22.20;55.10
42885;DHT22;28534;48.100;11.584;2023-03-14T05:49:10;22.20;55.40
42885;DHT22;28534;48.100;11.584;2023-03-14T05:54:12;22.30;55.60
42885;DHT22;28534;48.100;11.584;2023-03-14T05:59:15;22.30;55.60
42885;DHT22;28534;48.100;11.584;2023-03-14T06:04:17;22.30;55.90
42885;DHT22;28534;48.100;11.584;2023-03-14T06:09:18;22.30;55.90
42885;DHT22;28534;48.100;11.584;2023-03-14T06:14:24;22.40;56.50
42885;DHT22;28534;48.100;11.584;2023-03-14T06:19:26;22.30;56.50
42885;DHT22;28534;48.100;11.584;2023-03-14T06:24:27;22.40;56.80
42885;DHT22;28534;48.100;11.584;2023-03-14T06:29:31;22.50;57.00
42885;DHT22;28534;48.100;11.584;2023-03-14T06:34:32;22.40;57.60
42885;DHT22;28534;48.100;11.584;2023-03-14T06:39:34;22.40;57.40
42885;DHT22;28534;48.100;11.584;2023-03-14T06:44:37;22.40;57.80
42885;DHT22;28534;48.100;11.584;2023-03-14T06:49:39;22.40;58.00
42885;DHT22;28534;48.100;11.584;2023-03-14T06:54:41;22.40;57.90
42885;DHT22;28534;48.100;11.584;2023-03-14T06:59:44;22.50;57.80
42885;DHT22;28534;48.100;11.584;2023-03-14T07:04:45;22.40;58.00
42885;DHT22;28534;48.100;11.584;2023-03-14T07:09:47;22.40;58.60
42885;DHT22;28534;48.100;11.584;2023-03-14T07:14:50;22.30;58.80
42885;DHT22;28534;48.100;11.584;2023-03-14T07:19:52;22.20;58.40
42885;DHT22;28534;48.100;11.584;2023-03-14T07:24:54;22.20;58.60
42885;DHT22;28534;48.100;11.584;2023-03-14T07:29:57;22.30;58.90
42885;DHT22;28534;48.100;11.584;2023-03-14T07:34:58;22.30;58.90
42885;DHT22;28534;48.100;11.584;2023-03-14T07:40:00;22.30;59.00
42885;DHT22;28534;48.100;11.584;2023-03-14T07:45:08;22.30;59.00
42885;DHT22;28534;48.100;11.584;2023-03-14T07:50:10;22.30;59.00
42885;DHT22;28534;48.100;11.584;2023-03-14T07:55:12;22.20;58.90
42885;DHT22;28534;48.100;11.584;2023-03-14T08:00:16;22.20;58.90
42885;DHT22;28534;48.100;11.584;2023-03-14T08:05:18;22.20;58.80
42885;DHT22;28534;48.100;11.584;2023-03-14T08:10:19;22.20;58.80
42885;DHT22;28534;48.100;11.584;2023-03-14T08:15:26;22.10;58.70
42885;DHT22;28534;48.100;11.584;2023-03-14T08:20:29;22.10;58.80
42885;DHT22;28534;48.100;11.584;2023-03-14T08:25:31;22.20;59.00
42885;DHT22;28534;48.100;11.584;2023-03-14T08:30:34;22.10;61.30
42885;DHT22;28534;48.100;11.584;2023-03-14T08:35:37;22.20;61.80
42885;DHT22;28534;48.100;11.584;2023-03-14T08:40:39;22.20;60.60
42885;DHT22;28534;48.100;11.584;2023-03-14T08:45:42;22.20;60.60
42885;DHT22;28534;48.100;11.584;2023-03-14T08:50:44;22.20;61.00
42885;DHT22;28534;48.100;11.584;2023-03-14T08:55:46;22.20;60.60
42885;DHT22;28534;48.100;11.584;2023-03-14T09:00:49;22.20;60.50
42885;DHT22;28534;48.100;11.584;2023-03-14T09:05:51;22.10;60.20
42885;DHT22;28534;48.100;11.584;2023-03-14T09:10:53;22.10;60.10
42885;DHT22;28534;48.100;11.584;2023-03-14T09:15:57;22.10;60.00
42885;DHT22;28534;48.100;11.584;2023-03-14T09:20:59;22.10;59.80
42885;DHT22;28534;48.100;11.584;2023-03-14T09:26:01;22.20;59.80
42885;DHT22;28534;48.100;11.584;2023-03-14T09:31:08;22.10;59.60
42885;DHT22;28534;48.100;11.584;2023-03-14T09:36:10;22.10;59.60
42885;DHT22;28534;48.100;11.584;2023-03-14T09:41:15;22.10;59.50
42885;DHT22;28534;48.100;11.584;2023-03-14T09:46:19;22.10;59.50
42885;DHT22;28534;48.100;11.584;2023-03-14T09:51:22;22.10;59.40
42885;DHT22;28534;48.100;11.584;2023-03-14T09:56:26;22.10;59.30
42885;DHT22;28534;48.100;11.584;2023-03-14T10:01:32;22.10;59.40
42885;DHT22;28534;48.100;11.584;2023-03-14T10:06:35;22.20;59.30
42885;DHT22;28534;48.100;11.584;2023-03-14T10:11:39;22.20;58.90
42885;DHT22;28534;48.100;11.584;2023-03-14T10:16:45;22.20;58.90
42885;DHT22;28534;48.100;11.584;2023-03-14T10:21:52;22.20;58.90
42885;DHT22;28534;48.100;11.584;2023-03-14T10:26:55;22.20;58.80
42885;DHT22;28534;48.100;11.584;2023-03-14T10:32:05;22.10;58.70
42885;DHT22;28534;48.100;11.584;2023-03-14T10:37:16;22.20;58.70
42885;DHT22;28534;48.100;11.584;2023-03-14T10:42:24;22.20;58.60
42885;DHT22;28534;48.100;11.584;2023-03-14T10:47:32;22.30;58.40
42885;DHT22;28534;48.100;11.584;2023-03-14T10:52:34;22.20;58.30
42885;DHT22;28534;48.100;11.584;2023-03-14T10:57:38;22.30;58.30
42885;DHT22;28534;48.100;11.584;2023-03-14T11:02:53;22.30;58.20
42885;DHT22;28534;48.100;11.584;2023-03-14T11:08:00;22.20;58.20
42885;DHT22;28534;48.100;11.584;2023-03-14T11:13:14;22.30;58.30
42885;DHT22;28534;48.100;11.584;2023-03-14T11:24:04;22.20;58.30
42885;DHT22;28534;48.100;11.584;2023-03-14T11:29:16;22.20;58.30
42885;DHT22;28534;48.100;11.584;2023-03-14T11:34:26;22.30;58.30
42885;DHT22;28534;48.100;11.584;2023-03-14T11:39:37;22.30;58.60
42885;DHT22;28534;48.100;11.584;2023-03-14T11:44:40;22.30;58.70
42885;DHT22;28534;48.100;11.584;2023-03-14T11:49:47;22.30;58.70
42885;DHT22;28534;48.100;11.584;2023-03-14T11:54:56;22.20;58.80
42885;DHT22;28534;48.100;11.584;2023-03-14T12:00:02;22.20;58.90
42885;DHT22;28534;48.100;11.584;2023-03-14T12:05:37;22.20;58.90
42885;DHT22;28534;48.100;11.584;2023-03-14T12:10:45;22.20;58.90
42885;DHT22;28534;48.100;11.584;2023-03-14T12:15:50;21.80;54.80
42885;DHT22;28534;48.100;11.584;2023-03-14T12:20:58;20.60;50.60
42885;DHT22;28534;48.100;11.584;2023-03-14T12:26:13;19.70;46.90
42885;DHT22;28534;48.100;11.584;2023-03-14T12:31:38;20.20;48.10
42885;DHT22;28534;48.100;11.584;2023-03-14T12:36:56;21.10;46.60
42885;DHT22;28534;48.100;11.584;2023-03-14T12:42:08;21.50;47.70
42885;DHT22;28534;48.100;11.584;2023-03-14T12:47:49;21.70;49.00
42885;DHT22;28534;48.100;11.584;2023-03-14T12:53:17;21.80;49.90
42885;DHT22;28534;48.100;11.584;2023-03-14T12:58:28;21.90;50.40
42885;DHT22;28534;48.100;11.584;2023-03-14T13:03:43;21.90;50.80
42885;DHT22;28534;48.100;11.584;2023-03-14T13:08:46;22.00;51.30
42885;DHT22;28534;48.100;11.584;2023-03-14T13:13:52;22.00;51.40
42885;DHT22;28534;48.100;11.584;2023-03-14T13:19:02;22.10;51.70
42885;DHT22;28534;48.100;11.584;2023-03-14T13:24:07;22.10;52.00
42885;DHT22;28534;48.100;11.584;2023-03-14T13:29:16;22.10;52.20
42885;DHT22;28534;48.100;11.584;2023-03-14T13:34:18;22.00;52.50
42885;DHT22;28534;48.100;11.584;2023-03-14T13:39:22;22.00;52.60
42885;DHT22;28534;48.100;11.584;2023-03-14T13:44:30;22.10;52.80
42885;DHT22;28534;48.100;11.584;2023-03-14T13:49:33;22.10;52.80
42885;DHT22;28534;48.100;11.584;2023-03-14T13:54:38;22.10;53.10
42885;DHT22;28534;48.100;11.584;2023-03-14T13:59:42;22.10;53.70
42885;DHT22;28534;48.100;11.584;2023-03-14T14:04:44;22.10;54.60
42885;DHT22;28534;48.100;11.584;2023-03-14T14:09:47;22.10;55.00
42885;DHT22;28534;48.100;11.584;2023-03-14T14:14:53;22.10;56.00
42885;DHT22;28534;48.100;11.584;2023-03-14T14:19:57;22.10;56.10
42885;DHT22;28534;48.100;11.584;2023-03-14T14:25:00;22.10;55.80
42885;DHT22;28534;48.100;11.584;2023-03-14T14:30:06;22.10;56.00
42885;DHT22;28534;48.100;11.584;2023-03-14T14:35:10;22.10;56.10
42885;DHT22;28534;48.100;11.584;2023-03-14T14:40:25;22.10;56.20
42885;DHT22;28534;48.100;11.584;2023-03-14T14:45:28;22.10;56.20
42885;DHT22;28534;48.100;11.584;2023-03-14T14:50:32;22.10;56.40
42885;DHT22;28534;48.100;11.584;2023-03-14T14:55:38;22.10;56.50
42885;DHT22;28534;48.100;11.584;2023-03-14T15:00:50;22.10;56.40
42885;DHT22;28534;48.100;11.584;2023-03-14T15:05:53;22.00;56.50
42885;DHT22;28534;48.100;11.584;2023-03-14T15:10:57;22.10;56.50
42885;DHT22;28534;48.100;11.584;2023-03-14T15:16:00;22.10;56.30
42885;DHT22;28534;48.100;11.584;2023-03-14T15:21:02;22.10;56.40
42885;DHT22;28534;48.100;11.584;2023-03-14T15:26:08;22.10;56.20
42885;DHT22;28534;48.100;11.584;2023-03-14T15:31:15;22.10;56.20
42885;DHT22;28534;48.100;11.584;2023-03-14T15:36:23;22.10;56.20
42885;DHT22;28534;48.100;11.584;2023-03-14T15:41:26;22.10;56.20
42885;DHT22;28534;48.100;11.584;2023-03-14T15:46:29;22.10;56.30
42885;DHT22;28534;48.100;11.584;2023-03-14T15:51:31;22.10;56.30
42885;DHT22;28534;48.100;11.584;2023-03-14T15:56:33;22.10;56.50
42885;DHT22;28534;48.100;11.584;2023-03-14T16:01:36;22.10;56.60
42885;DHT22;28534;48.100;11.584;2023-03-14T16:06:38;22.10;56.80
42885;DHT22;28534;48.100;11.584;2023-03-14T16:11:40;22.10;56.90
42885;DHT22;28534;48.100;11.584;2023-03-14T16:16:43;22.00;56.90
42885;DHT22;28534;48.100;11.584;2023-03-14T16:21:45;22.00;57.10
42885;DHT22;28534;48.100;11.584;2023-03-14T16:26:46;22.00;57.20
42885;DHT22;28534;48.100;11.584;2023-03-14T16:31:50;22.00;57.50
42885;DHT22;28534;48.100;11.584;2023-03-14T16:36:52;22.10;57.70
42885;DHT22;28534;48.100;11.584;2023-03-14T16:41:53;22.10;58.80
42885;DHT22;28534;48.100;11.584;2023-03-14T16:46:56;22.10;59.40
42885;DHT22;28534;48.100;11.584;2023-03-14T16:51:58;22.20;61.90
42885;DHT22;28534;48.100;11.584;2023-03-14T16:57:00;22.10;61.50
42885;DHT22;28534;48.100;11.584;2023-03-14T17:02:03;22.20;61.80
42885;DHT22;28534;48.100;11.584;2023-03-14T17:07:05;22.20;61.80
42885;DHT22;28534;48.100;11.584;2023-03-14T17:12:07;22.10;61.20
42885;DHT22;28534;48.100;11.584;2023-03-14T17:17:10;22.10;61.00
42885;DHT22;28534;48.100;11.584;2023-03-14T17:22:12;22.00;61.20
42885;DHT22;28534;48.100;11.584;2023-03-14T17:27:14;22.00;60.40
42885;DHT22;28534;48.100;11.584;2023-03-14T17:32:20;22.00;60.60
42885;DHT22;28534;48.100;11.584;2023-03-14T17:37:24;22.00;60.60
42885;DHT22;28534;48.100;11.584;2023-03-14T17:42:26;22.00;60.20
42885;DHT22;28534;48.100;11.584;2023-03-14T17:47:29;22.00;60.00
42885;DHT22;28534;48.100;11.584;2023-03-14T17:52:31;22.00;60.30
42885;DHT22;28534;48.100;11.584;2023-03-14T17:57:36;22.00;59.80
42885;DHT22;28534;48.100;11.584;2023-03-14T18:02:40;21.90;58.80
42885;DHT22;28534;48.100;11.584;2023-03-14T18:07:42;21.90;58.00
42885;DHT22;28534;48.100;11.584;2023-03-14T18:12:44;21.90;58.40
42885;DHT22;28534;48.100;11.584;2023-03-14T18:17:47;21.80;58.40
42885;DHT22;28534;48.100;11.584;2023-03-14T18:22:48;21.80;55.30
42885;DHT22;28534;48.100;11.584;2023-03-14T18:27:50;21.80;53.60
42885;DHT22;28534;48.100;11.584;2023-03-14T18:32:53;21.70;53.30
42885;DHT22;28534;48.100;11.584;2023-03-14T18:37:55;21.70;54.00
42885;DHT22;28534;48.100;11.584;2023-03-14T18:42:57;21.70;54.10
42885;DHT22;28534;48.100;11.584;2023-03-14T18:48:00;21.70;54.40
42885;DHT22;28534;48.100;11.584;2023-03-14T18:53:02;21.70;54.50
42885;DHT22;28534;48.100;11.584;2023-03-14T18:58:03;21.60;54.70
42885;DHT22;28534;48.100;11.584;2023-03-14T19:03:06;21.60;54.80
42885;DHT22;28534;48.100;11.584;2023-03-14T19:08:08;21.60;55.00
42885;DHT22;28534;48.100;11.584;2023-03-14T19:13:14;21.60;55.40
42885;DHT22;28534;48.100;11.584;2023-03-14T19:18:17;21.60;55.40
42885;DHT22;28534;48.100;11.584;2023-03-14T19:23:18;21.60;55.50
42885;DHT22;28534;48.100;11.584;2023-03-14T19:28:24;21.60;55.70
42885;DHT22;28534;48.100;11.584;2023-03-14T19:33:28;21.60;55.90
42885;DHT22;28534;48.100;11.584;2023-03-14T19:38:30;21.60;56.40
42885;DHT22;28534;48.100;11.584;2023-03-14T19:43:32;21.60;56.40
42885;DHT22;28534;48.100;11.584;2023-03-14T19:48:35;21.60;56.60
42885;DHT22;28534;48.100;11.584;2023-03-14T19:53:37;21.60;56.80
42885;DHT22;28534;48.100;11.584;2023-03-14T19:58:39;21.60;56.90
42885;DHT22;28534;48.100;11.584;2023-03-14T20:03:42;21.60;57.00
42885;DHT22;28534;48.100;11.584;2023-03-14T20:08:44;21.60;57.20
42885;DHT22;28534;48.100;11.584;2023-03-14T20:13:46;21.60;57.10
42885;DHT22;28534;48.100;11.584;2023-03-14T20:18:49;21.60;57.20
42885;DHT22;28534;48.100;11.584;2023-03-14T20:23:50;21.50;57.20
42885;DHT22;28534;48.100;11.584;2023-03-14T20:28:52;21.50;57.00
42885;DHT22;28534;48.100;11.584;2023-03-14T20:33:55;21.50;57.00
42885;DHT22;28534;48.100;11.584;2023-03-14T20:38:57;21.50;56.90
42885;DHT22;28534;48.100;11.584;2023-03-14T20:43:59;21.50;57.10
42885;DHT22;28534;48.100;11.584;2023-03-14T20:49:02;21.50;57.20
42885;DHT22;28534;48.100;11.584;2023-03-14T20:54:04;21.50;57.30
42885;DHT22;28534;48.100;11.584;2023-03-14T20:59:08;21.50;57.40
42885;DHT22;28534;48.100;11.584;2023-03-14T21:04:11;21.50;57.50
42885;DHT22;28534;48.100;11.584;2023-03-14T21:09:13;21.50;57.60
42885;DHT22;28534;48.100;11.584;2023-03-14T21:14:15;21.50;57.70
42885;DHT22;28534;48.100;11.584;2023-03-14T21:19:19;21.50;57.60
42885;DHT22;28534;48.100;11.584;2023-03-14T21:24:21;21.40;57.50
42885;DHT22;28534;48.100;11.584;2023-03-14T21:29:25;21.40;57.60
42885;DHT22;28534;48.100;11.584;2023-03-14T21:34:28;21.40;57.60
42885;DHT22;28534;48.100;11.584;2023-03-14T21:39:30;21.40;57.60
42885;DHT22;28534;48.100;11.584;2023-03-14T21:44:31;21.40;57.60
42885;DHT22;28534;48.100;11.584;2023-03-14T21:49:38;21.40;57.50
42885;DHT22;28534;48.100;11.584;2023-03-14T21:54:40;21.40;57.60
42885;DHT22;28534;48.100;11.584;2023-03-14T21:59:44;21.40;57.60
42885;DHT22;28534;48.100;11.584;2023-03-14T22:04:47;21.40;57.60
42885;DHT22;28534;48.100;11.584;2023-03-14T22:09:49;21.40;57.70
42885;DHT22;28534;48.100;11.584;2023-03-14T22:14:51;21.40;57.70
42885;DHT22;28534;48.100;11.584;2023-03-14T22:19:54;21.40;57.70
42885;DHT22;28534;48.100;11.584;2023-03-14T22:24:56;21.40;57.80
42885;DHT22;28534;48.100;11.584;2023-03-14T22:29:58;21.40;57.70
42885;DHT22;28534;48.100;11.584;2023-03-14T22:35:01;21.40;57.80
42885;DHT22;28534;48.100;11.584;2023-03-14T22:40:03;21.40;58.00
42885;DHT22;28534;48.100;11.584;2023-03-14T22:45:06;21.40;58.20
42885;DHT22;28534;48.100;11.584;2023-03-14T22:50:10;21.40;58.30
42885;DHT22;28534;48.100;11.584;2023-03-14T22:55:12;21.40;58.30
42885;DHT22;28534;48.100;11.584;2023-03-14T23:00:15;21.40;58.30
42885;DHT22;28534;48.100;11.584;2023-03-14T23:05:19;21.40;58.40
42885;DHT22;28534;48.100;11.584;2023-03-14T23:10:22;21.30;58.30
42885;DHT22;28534;48.100;11.584;2023-03-14T23:15:24;21.30;58.40
42885;DHT22;28534;48.100;11.584;2023-03-14T23:20:28;21.30;58.40
42885;DHT22;28534;48.100;11.584;2023-03-14T23:25:30;21.30;58.50
42885;DHT22;28534;48.100;11.584;2023-03-14T23:30:32;21.30;58.50
42885;DHT22;28534;48.100;11.584;2023-03-14T23:35:35;21.30;58.60
42885;DHT22;28534;48.100;11.584;2023-03-14T23:40:37;21.20;58.60
42885;DHT22;28534;48.100;11.584;2023-03-14T23:45:39;21.20;58.60
42885;DHT22;28534;48.100;11.584;2023-03-14T23:50:42;21.20;58.60
42885;DHT22;28534;48.100;11.584;2023-03-14T23:55:44;21.20;58.60
